Time;durP1;ratioP1;P1;durP2;ratioP2;P2;SDS_P1;SDS_P2;PMS_P1;PMS_P2;Temp;Humidity;BMP_temperature;BMP_pressure;BME280_temperature;BME280_humidity;BME280_pressure;Samples;Min_cycle;Max_cycle;Signal;HPM_P1;HPM_P2
2023/02/24 00:01:40;;;;;;;;;;;;;;;;;;5072879;28;2606;-41
2023/02/24 00:04:09;;;;;;;;;;;;;;;;;;5091180;28;1922;-45
2023/02/24 00:06:39;;;;;;;;;;;;;;;;;;5071925;28;2145;-43
2023/02/24 00:09:10;;;;;;;;;;;;;;;;;;5075171;28;2130;-43
2023/02/24 00:11:39;;;;;;;;;;;;;;;;;;5074903;28;2082;-44
2023/02/24 00:14:08;;;;;;;;;;;;;;;;;;5075041;28;2014;-45
2023/02/24 00:16:36;;;;;;;;;;;;;;;;;;5074982;28;2114;-46
2023/02/24 00:19:06;;;;;;;;;;;;;;;;;;5074611;28;2021;-43
2023/02/24 00:21:34;;;;;;;;;;;;;;;;;;5074617;28;2174;-48
2023/02/24 00:24:02;;;;;;;;;;;;;;;;;;5074662;28;1891;-44
2023/02/24 00:26:30;;;;;;;;;;;;;;;;;;5074255;28;2027;-42
2023/02/24 00:29:02;;;;;;;;;;;;;;;;;;5056543;28;2155;-44
2023/02/24 00:31:33;;;;;;;;;;;;;;;;;;5056674;28;1856;-41
2023/02/24 00:34:01;;;;;;;;;;;;;;;;;;5074193;28;2111;-42
2023/02/24 00:36:29;;;;;;;;;;;;;;;;;;5056284;28;2168;-43
2023/02/24 00:38:57;;;;;;;;;;;;;;;;;;5056144;28;1879;-42
2023/02/24 00:41:30;;;;;;;;;;;;;;;;;;5074154;28;1727;-43
2023/02/24 00:44:08;;;;;;;;;;;;;;;;;;5074065;28;2022;-42
2023/02/24 00:46:37;;;;;;;;;;;;;;;;;;5074056;28;1987;-40
2023/02/24 00:49:09;;;;;;;;;;;;;;;;;;5074055;28;1956;-42
2023/02/24 00:51:37;;;;;;;;;;;;;;;;;;5056144;28;2179;-41
2023/02/24 00:54:05;;;;;;;;;;;;;;;;;;5055840;28;2173;-40
2023/02/24 00:56:33;;;;;;;;;;;;;;;;;;5073651;28;1901;-44
2023/02/24 00:59:01;;;;;;;;;;;;;;;;;;5055945;28;2025;-41
2023/02/24 01:01:30;;;;;;;;;;;;;;;;;;5073642;28;1697;-43
2023/02/24 01:04:10;;;;;;;;;;;;;;;;;;5055277;28;1517;-45
2023/02/24 01:06:42;;;;;;;;;;;;;;;;;;5073879;28;2266;-39
2023/02/24 01:09:15;;;;;;;;;;;;;;;;;;5072447;28;2120;-41
2023/02/24 01:14:31;;;;;;;;;;;;;;;;;;5073146;28;1773;-45
2023/02/24 01:16:58;;;;;;;;;;;;;;;;;;5073605;28;1782;-42
2023/02/24 01:19:30;;;;;;;;;;;;;;;;;;5072484;28;1814;-46
2023/02/24 01:22:02;;;;;;;;;;;;;;;;;;5073524;28;1839;-40
2023/02/24 01:24:31;;;;;;;;;;;;;;;;;;5073603;28;1842;-46
2023/02/24 01:27:04;;;;;;;;;;;;;;;;;;5073267;28;1982;-41
2023/02/24 01:29:38;;;;;;;;;;;;;;;;;;5073299;28;1869;-40
2023/02/24 01:32:11;;;;;;;;;;;;;;;;;;5073177;28;2189;-43
2023/02/24 01:34:41;;;;;;;;;;;;;;;;;;5088848;28;2182;-40
2023/02/24 01:37:09;;;;;;;;;;;;;;;;;;5073262;28;1759;-44
2023/02/24 01:39:36;;;;;;;;;;;;;;;;;;5055506;28;1848;-43
2023/02/24 01:42:05;;;;;;;;;;;;;;;;;;5073152;28;1532;-41
2023/02/24 01:44:32;;;;;;;;;;;;;;;;;;5073043;28;1713;-44
2023/02/24 01:47:00;;;;;;;;;;;;;;;;;;5072938;28;2088;-44
2023/02/24 01:49:32;;;;;;;;;;;;;;;;;;5038556;28;1892;-49
2023/02/24 01:52:05;;;;;;;;;;;;;;;;;;5088236;28;2348;-43
2023/02/24 01:54:35;;;;;;;;;;;;;;;;;;5072828;28;1705;-43
2023/02/24 01:57:04;;;;;;;;;;;;;;;;;;5072679;28;1943;-42
2023/02/24 01:59:34;;;;;;;;;;;;;;;;;;5054632;28;1754;-47
2023/02/24 02:02:03;;;;;;;;;;;;;;;;;;5054862;28;1856;-45
2023/02/24 02:04:37;;;;;;;;;;;;;;;;;;5056179;28;2217;-39
2023/02/24 02:07:08;;;;;;;;;;;;;;;;;;5074988;28;2337;-42
2023/02/24 02:09:37;;;;;;;;;;;;;;;;;;5074516;28;1931;-44
2023/02/24 02:12:04;;;;;;;;;;;;;;;;;;5074687;28;2131;-41
2023/02/24 02:14:35;;;;;;;;;;;;;;;;;;5074416;28;1344;-45
2023/02/24 02:17:21;;;;;;;;;;;;;;;;;;5092369;28;2135;-43
2023/02/24 02:20:15;;;;;;;;;;;;;;;;;;5092733;28;1846;-46
2023/02/24 02:23:01;;;;;;;;;;;;;;;;;;5092851;28;1975;-40
2023/02/24 02:25:29;;;;;;;;;;;;;;;;;;5092147;28;2068;-43
2023/02/24 02:28:02;;;;;;;;;;;;;;;;;;5092524;28;2027;-40
2023/02/24 02:30:42;;;;;;;;;;;;;;;;;;5073768;28;1922;-41
2023/02/24 02:33:26;;;;;;;;;;;;;;;;;;5087208;28;2092;-43
2023/02/24 02:35:59;;;;;;;;;;;;;;;;;;5071780;28;1752;-40
2023/02/24 02:38:33;;;;;;;;;;;;;;;;;;5072102;28;1887;-39
2023/02/24 02:41:21;;;;;;;;;;;;;;;;;;5071978;28;1906;-43
2023/02/24 02:43:51;;;;;;;;;;;;;;;;;;5071859;28;1816;-41
2023/02/24 02:46:33;;;;;;;;;;;;;;;;;;5053797;28;1350;-42
2023/02/24 02:49:21;;;;;;;;;;;;;;;;;;5071929;28;1986;-44
2023/02/24 02:51:55;;;;;;;;;;;;;;;;;;5031483;28;2249;-40
2023/02/24 02:54:35;;;;;;;;;;;;;;;;;;5053892;28;1969;-45
2023/02/24 02:57:15;;;;;;;;;;;;;;;;;;5071832;28;1975;-41
2023/02/24 02:59:50;;;;;;;;;;;;;;;;;;5071819;28;1456;-42
2023/02/24 03:02:20;;;;;;;;;;;;;;;;;;5071814;28;1963;-41
2023/02/24 03:04:52;;;;;;;;;;;;;;;;;;5075599;28;1635;-41
2023/02/24 03:07:21;;;;;;;;;;;;;;;;;;5073241;28;1902;-47
2023/02/24 03:09:51;;;;;;;;;;;;;;;;;;5073432;28;2180;-40
2023/02/24 03:12:20;;;;;;;;;;;;;;;;;;5092020;28;1834;-42
2023/02/24 03:14:51;;;;;;;;;;;;;;;;;;5091832;28;1846;-42
2023/02/24 03:17:23;;;;;;;;;;;;;;;;;;5091499;28;1920;-43
2023/02/24 03:19:59;;;;;;;;;;;;;;;;;;5091542;28;1927;-45
2023/02/24 03:22:30;;;;;;;;;;;;;;;;;;5073411;28;2208;-43
2023/02/24 03:24:58;;;;;;;;;;;;;;;;;;5091641;28;2029;-41
2023/02/24 03:27:40;;;;;;;;;;;;;;;;;;5091205;28;2074;-44
2023/02/24 03:30:22;;;;;;;;;;;;;;;;;;5057370;28;1816;-43
2023/02/24 03:32:55;;;;;;;;;;;;;;;;;;5091532;28;2048;-42
2023/02/24 03:35:27;;;;;;;;;;;;;;;;;;5069494;28;1415;-42
2023/02/24 03:37:58;;;;;;;;;;;;;;;;;;5069538;28;1999;-43
2023/02/24 03:40:43;;;;;;;;;;;;;;;;;;5049129;28;1953;-40
2023/02/24 03:43:24;;;;;;;;;;;;;;;;;;5049286;28;2022;-40
2023/02/24 03:45:53;;;;;;;;;;;;;;;;;;5050740;28;1913;-40
2023/02/24 03:48:23;;;;;;;;;;;;;;;;;;5051001;28;2208;-45
2023/02/24 03:50:52;;;;;;;;;;;;;;;;;;5050889;28;1814;-42
2023/02/24 03:53:59;;;;;;;;;;;;;;;;;;5049379;28;1812;-44
2023/02/24 03:56:39;;;;;;;;;;;;;;;;;;5049537;28;1901;-47
2023/02/24 03:59:14;;;;;;;;;;;;;;;;;;5049053;28;1718;-42
2023/02/24 04:01:56;;;;;;;;;;;;;;;;;;5049588;28;1890;-43
2023/02/24 04:04:50;;;;;;;;;;;;;;;;;;5049403;28;1766;-42
2023/02/24 04:07:34;;;;;;;;;;;;;;;;;;5049166;28;1724;-43
2023/02/24 04:10:19;;;;;;;;;;;;;;;;;;5049509;28;1644;-43
2023/02/24 04:12:51;;;;;;;;;;;;;;;;;;5049756;28;2169;-44
2023/02/24 04:15:28;;;;;;;;;;;;;;;;;;5049476;28;1457;-42
2023/02/24 04:18:00;;;;;;;;;;;;;;;;;;5048960;28;2208;-43
2023/02/24 04:20:33;;;;;;;;;;;;;;;;;;5049260;28;1866;-46
2023/02/24 04:23:07;;;;;;;;;;;;;;;;;;5050467;28;1747;-42
2023/02/24 04:25:38;;;;;;;;;;;;;;;;;;5050242;28;2082;-43
2023/02/24 04:28:06;;;;;;;;;;;;;;;;;;5049168;28;1912;-42
2023/02/24 04:30:37;;;;;;;;;;;;;;;;;;5049472;28;1698;-45
2023/02/24 04:33:04;;;;;;;;;;;;;;;;;;5049166;28;2275;-44
2023/02/24 04:35:32;;;;;;;;;;;;;;;;;;5062899;28;1621;-42
2023/02/24 04:38:00;;;;;;;;;;;;;;;;;;5036278;28;1429;-41
2023/02/24 04:40:27;;;;;;;;;;;;;;;;;;5035900;28;1798;-44
2023/02/24 04:42:55;;;;;;;;;;;;;;;;;;5070394;28;1532;-50
2023/02/24 04:45:23;;;;;;;;;;;;;;;;;;5070492;28;1965;-41
2023/02/24 04:47:55;;;;;;;;;;;;;;;;;;5074373;28;10286;-40
2023/02/24 04:50:24;;;;;;;;;;;;;;;;;;5095932;28;2026;-43
2023/02/24 04:52:53;;;;;;;;;;;;;;;;;;5093670;28;1918;-40
2023/02/24 04:55:22;;;;;;;;;;;;;;;;;;5114710;28;1925;-44
2023/02/24 04:57:52;;;;;;;;;;;;;;;;;;5114708;28;1846;-42
2023/02/24 05:00:20;;;;;;;;;;;;;;;;;;5114774;28;1790;-41
2023/02/24 05:02:48;;;;;;;;;;;;;;;;;;5114279;28;1981;-47
2023/02/24 05:05:16;;;;;;;;;;;;;;;;;;5106466;28;2115;-40
2023/02/24 05:07:47;;;;;;;;;;;;;;;;;;5093874;28;1925;-42
2023/02/24 05:10:14;;;;;;;;;;;;;;;;;;5094002;28;2183;-42
2023/02/24 05:12:41;;;;;;;;;;;;;;;;;;5093340;28;2073;-47
2023/02/24 05:15:09;;;;;;;;;;;;;;;;;;5093679;28;2129;-45
2023/02/24 05:17:37;;;;;;;;;;;;;;;;;;5093850;28;1995;-42
2023/02/24 05:22:54;;;;;;;;;;;;;;;;;;5093707;28;2335;-41
2023/02/24 05:25:24;;;;;;;;;;;;;;;;;;5093828;28;2077;-43
2023/02/24 05:27:51;;;;;;;;;;;;;;;;;;5093944;28;1916;-42
2023/02/24 05:30:18;;;;;;;;;;;;;;;;;;5093704;28;1890;-48
2023/02/24 05:32:46;;;;;;;;;;;;;;;;;;5093363;28;1808;-45
2023/02/24 05:35:13;;;;;;;;;;;;;;;;;;5093476;28;2125;-43
2023/02/24 05:37:43;;;;;;;;;;;;;;;;;;5093631;28;1988;-41
2023/02/24 05:40:12;;;;;;;;;;;;;;;;;;5093442;28;1998;-41
2023/02/24 05:42:40;;;;;;;;;;;;;;;;;;5093272;28;2442;-43
2023/02/24 05:45:09;;;;;;;;;;;;;;;;;;5093079;28;2170;-45
2023/02/24 05:47:38;;;;;;;;;;;;;;;;;;5093196;28;1583;-42
2023/02/24 05:50:08;;;;;;;;;;;;;;;;;;5093335;28;1973;-41
2023/02/24 05:52:36;;;;;;;;;;;;;;;;;;5093047;28;1842;-44
2023/02/24 05:55:06;;;;;;;;;;;;;;;;;;5093403;28;1848;-43
2023/02/24 05:57:34;;;;;;;;;;;;;;;;;;5093167;28;1829;-46
2023/02/24 06:00:15;;;;;;;;;;;;;;;;;;5092912;28;1803;-43
2023/02/24 06:02:48;;;;;;;;;;;;;;;;;;5074922;28;1868;-42
2023/02/24 06:05:24;;;;;;;;;;;;;;;;;;5083871;28;10601;-41
2023/02/24 06:08:01;;;;;;;;;;;;;;;;;;5092906;28;1890;-45
2023/02/24 06:10:30;;;;;;;;;;;;;;;;;;5092679;28;1687;-42
2023/02/24 06:12:59;;;;;;;;;;;;;;;;;;5093023;28;1988;-42
2023/02/24 06:15:27;;;;;;;;;;;;;;;;;;5092970;28;2112;-41
2023/02/24 06:17:59;;;;;;;;;;;;;;;;;;5092844;28;2121;-40
2023/02/24 06:20:28;;;;;;;;;;;;;;;;;;5092705;28;1878;-45
2023/02/24 06:22:58;;;;;;;;;;;;;;;;;;5092575;28;1649;-42
2023/02/24 06:25:28;;;;;;;;;;;;;;;;;;5092610;28;2195;-44
2023/02/24 06:27:55;;;;;;;;;;;;;;;;;;5092723;28;2104;-41
2023/02/24 06:30:23;;;;;;;;;;;;;;;;;;5092374;28;2259;-47
2023/02/24 06:32:50;;;;;;;;;;;;;;;;;;5092291;28;2134;-46
2023/02/24 06:35:19;;;;;;;;;;;;;;;;;;5092229;28;1886;-43
2023/02/24 06:37:46;;;;;;;;;;;;;;;;;;5092214;28;2025;-42
2023/02/24 06:40:16;;;;;;;;;;;;;;;;;;5092374;28;1663;-44
2023/02/24 06:42:47;;;;;;;;;;;;;;;;;;5092194;28;2178;-44
2023/02/24 06:45:15;;;;;;;;;;;;;;;;;;5091497;28;1612;-43
2023/02/24 06:47:42;;;;;;;;;;;;;;;;;;5090711;28;1610;-46
2023/02/24 06:50:11;;;;;;;;;;;;;;;;;;5090891;28;1915;-41
2023/02/24 06:52:39;;;;;;;;;;;;;;;;;;5092082;28;2029;-41
2023/02/24 06:55:23;;;;;;;;;;;;;;;;;;5091934;28;1948;-42
2023/02/24 06:58:02;;;;;;;;;;;;;;;;;;5092136;28;1547;-45
2023/02/24 07:00:37;;;;;;;;;;;;;;;;;;5091907;28;1752;-46
2023/02/24 07:03:13;;;;;;;;;;;;;;;;;;5091810;28;1579;-43
2023/02/24 07:06:09;;;;;;;;;;;;;;;;;;5079960;28;2021;-42
2023/02/24 07:08:32;;;;;;;;;;;;;;;;;;5070463;28;2019;-42
2023/02/24 07:10:59;;;;;;;;;;;;;;;;;;5071564;28;1484;-45
2023/02/24 07:13:29;;;;;;;;;;;;;;;;;;5071506;28;2141;-45
2023/02/24 07:15:59;;;;;;;;;;;;;;;;;;5071194;28;1782;-47
2023/02/24 07:18:26;;;;;;;;;;;;;;;;;;5071145;28;1913;-42
2023/02/24 07:20:53;;;;;;;;;;;;;;;;;;5071525;28;2183;-43
2023/02/24 07:23:20;;;;;;;;;;;;;;;;;;5071097;28;1840;-44
2023/02/24 07:25:47;;;;;;;;;;;;;;;;;;5071381;28;1954;-45
2023/02/24 07:28:17;;;;;;;;;;;;;;;;;;5071200;28;1474;-45
2023/02/24 07:30:45;;;;;;;;;;;;;;;;;;5071172;28;2016;-46
2023/02/24 07:33:13;;;;;;;;;;;;;;;;;;5071293;28;1924;-46
2023/02/24 07:35:41;;;;;;;;;;;;;;;;;;5071150;28;2074;-42
2023/02/24 07:38:08;;;;;;;;;;;;;;;;;;5071197;28;1764;-46
2023/02/24 07:40:35;;;;;;;;;;;;;;;;;;5071432;28;1703;-42
2023/02/24 07:43:05;;;;;;;;;;;;;;;;;;5071190;28;1941;-46
2023/02/24 07:45:33;;;;;;;;;;;;;;;;;;5070899;28;1995;-43
2023/02/24 07:48:00;;;;;;;;;;;;;;;;;;5071153;28;1965;-46
2023/02/24 07:50:31;;;;;;;;;;;;;;;;;;5070943;28;2033;-48
2023/02/24 07:52:59;;;;;;;;;;;;;;;;;;5071114;28;2138;-46
2023/02/24 07:55:30;;;;;;;;;;;;;;;;;;5071014;28;1976;-44
2023/02/24 07:57:57;;;;;;;;;;;;;;;;;;5071046;28;1702;-41
2023/02/24 08:00:27;;;;;;;;;;;;;;;;;;5071319;28;1696;-43
2023/02/24 08:02:55;;;;;;;;;;;;;;;;;;5070806;28;1653;-44
2023/02/24 08:05:23;;;;;;;;;;;;;;;;;;5079415;28;1679;-46
2023/02/24 08:07:51;;;;;;;;;;;;;;;;;;5090868;28;1593;-43
2023/02/24 08:10:24;;;;;;;;;;;;;;;;;;5090701;28;1993;-45
2023/02/24 08:12:55;;;;;;;;;;;;;;;;;;5091155;28;1680;-44
2023/02/24 08:15:23;;;;;;;;;;;;;;;;;;5090728;28;1781;-47
2023/02/24 08:17:52;;;;;;;;;;;;;;;;;;5091199;28;2156;-42
2023/02/24 08:20:20;;;;;;;;;;;;;;;;;;5090803;28;2068;-43
2023/02/24 08:22:51;;;;;;;;;;;;;;;;;;5090758;28;2190;-47
2023/02/24 08:25:21;;;;;;;;;;;;;;;;;;5090798;28;2007;-42
2023/02/24 08:27:56;;;;;;;;;;;;;;;;;;5091421;28;2186;-45
2023/02/24 08:30:39;;;;;;;;;;;;;;;;;;5094827;28;1982;-44
2023/02/24 08:33:08;;;;;;;;;;;;;;;;;;5094823;28;2157;-40
2023/02/24 08:35:37;;;;;;;;;;;;;;;;;;5095011;28;1819;-43
2023/02/24 08:38:07;;;;;;;;;;;;;;;;;;5094919;28;2100;-42
2023/02/24 08:40:38;;;;;;;;;;;;;;;;;;5094764;28;1692;-42
2023/02/24 08:43:34;;;;;;;;;;;;;;;;;;5094826;28;1842;-45
2023/02/24 08:46:24;;;;;;;;;;;;;;;;;;5070850;28;1828;-46
2023/02/24 08:48:54;;;;;;;;;;;;;;;;;;5094513;28;1977;-44
2023/02/24 08:51:27;;;;;;;;;;;;;;;;;;5094394;28;1653;-43
2023/02/24 08:53:56;;;;;;;;;;;;;;;;;;5094520;28;1634;-44
2023/02/24 08:56:25;;;;;;;;;;;;;;;;;;5094396;28;1816;-47
2023/02/24 08:58:57;;;;;;;;;;;;;;;;;;5094364;28;1949;-43
2023/02/24 09:01:33;;;;;;;;;;;;;;;;;;5093950;28;1575;-44
2023/02/24 09:04:03;;;;;;;;;;;;;;;;;;5094264;28;2018;-44
2023/02/24 09:06:42;;;;;;;;;;;;;;;;;;5075714;28;2130;-43
2023/02/24 09:09:17;;;;;;;;;;;;;;;;;;5073575;28;2113;-40
2023/02/24 09:11:56;;;;;;;;;;;;;;;;;;5073543;28;2166;-44
2023/02/24 09:14:27;;;;;;;;;;;;;;;;;;5073833;28;1249;-42
2023/02/24 09:17:05;;;;;;;;;;;;;;;;;;5073623;28;1766;-44
2023/02/24 09:22:31;;;;;;;;;;;;;;;;;;5073719;28;1822;-47
2023/02/24 09:27:51;;;;;;;;;;;;;;;;;;5073574;28;1879;-48
2023/02/24 09:30:34;;;;;;;;;;;;;;;;;;5073366;28;1916;-48
2023/02/24 09:33:16;;;;;;;;;;;;;;;;;;5073415;28;2051;-41
2023/02/24 09:35:51;;;;;;;;;;;;;;;;;;5073027;28;1716;-44
2023/02/24 09:38:23;;;;;;;;;;;;;;;;;;5073295;28;2164;-48
2023/02/24 09:40:51;;;;;;;;;;;;;;;;;;5072290;28;1405;-56
2023/02/24 09:43:20;;;;;;;;;;;;;;;;;;5072907;28;2232;-44
2023/02/24 09:45:59;;;;;;;;;;;;;;;;;;5073242;28;1927;-47
2023/02/24 09:48:42;;;;;;;;;;;;;;;;;;5073109;28;1786;-43
2023/02/24 09:51:27;;;;;;;;;;;;;;;;;;5072927;28;1970;-47
2023/02/24 09:53:55;;;;;;;;;;;;;;;;;;5073247;28;1856;-45
2023/02/24 09:56:44;;;;;;;;;;;;;;;;;;5073067;28;1485;-45
2023/02/24 09:59:33;;;;;;;;;;;;;;;;;;5073048;28;1662;-44
2023/02/24 10:02:11;;;;;;;;;;;;;;;;;;5072758;28;1874;-45
2023/02/24 10:04:47;;;;;;;;;;;;;;;;;;5075470;28;2077;-49
2023/02/24 10:07:17;;;;;;;;;;;;;;;;;;5092979;28;2133;-50
2023/02/24 10:10:18;;;;;;;;;;;;;;;;;;5092964;28;1983;-48
2023/02/24 10:12:52;;;;;;;;;;;;;;;;;;5092999;28;1721;-47
2023/02/24 10:18:26;;;;;;;;;;;;;;;;;;5092631;28;2022;-49
2023/02/24 10:20:57;;;;;;;;;;;;;;;;;;5092326;28;1460;-46
2023/02/24 10:23:31;;;;;;;;;;;;;;;;;;5092545;28;1752;-47
2023/02/24 10:26:02;;;;;;;;;;;;;;;;;;5092822;28;1642;-44
2023/02/24 10:28:59;;;;;;;;;;;;;;;;;;5092485;28;1936;-44
2023/02/24 10:31:29;;;;;;;;;;;;;;;;;;5061798;28;1912;-47
2023/02/24 10:34:08;;;;;;;;;;;;;;;;;;5092735;28;2011;-47
2023/02/24 10:36:36;;;;;;;;;;;;;;;;;;5092658;28;2151;-46
2023/02/24 10:39:24;;;;;;;;;;;;;;;;;;5092323;28;1567;-46
2023/02/24 10:42:14;;;;;;;;;;;;;;;;;;5092382;28;1940;-51
2023/02/24 10:45:04;;;;;;;;;;;;;;;;;;5091960;28;1496;-49
2023/02/24 10:47:35;;;;;;;;;;;;;;;;;;5092249;28;2141;-43
2023/02/24 10:50:05;;;;;;;;;;;;;;;;;;5092090;28;1915;-45
2023/02/24 10:55:27;;;;;;;;;;;;;;;;;;5092029;28;1559;-41
2023/02/24 10:58:14;;;;;;;;;;;;;;;;;;5091916;28;1979;-45
2023/02/24 11:03:40;;;;;;;;;;;;;;;;;;5092059;28;1957;-45
2023/02/24 11:09:31;;;;;;;;;;;;;;;;;;5027581;28;1908;-49
2023/02/24 11:17:36;;;;;;;;;;;;;;;;;;5071725;28;1679;-47
2023/02/24 11:20:17;;;;;;;;;;;;;;;;;;5071741;28;2285;-47
2023/02/24 11:22:47;;;;;;;;;;;;;;;;;;5071225;28;2087;-45
2023/02/24 11:25:17;;;;;;;;;;;;;;;;;;5071273;28;1772;-46
2023/02/24 11:27:45;;;;;;;;;;;;;;;;;;5071447;28;1704;-48
2023/02/24 11:30:15;;;;;;;;;;;;;;;;;;5071342;28;1981;-42
2023/02/24 11:32:44;;;;;;;;;;;;;;;;;;5071206;28;1972;-47
2023/02/24 11:35:31;;;;;;;;;;;;;;;;;;5071138;28;1435;-45
2023/02/24 11:38:37;;;;;;;;;;;;;;;;;;5070001;28;1883;-47
2023/02/24 11:41:24;;;;;;;;;;;;;;;;;;4989792;28;2099;-50
2023/02/24 11:44:01;;;;;;;;;;;;;;;;;;4989432;28;1678;-49
2023/02/24 11:46:33;;;;;;;;;;;;;;;;;;5028065;28;2612;-50
2023/02/24 11:49:01;;;;;;;;;;;;;;;;;;5071018;28;2001;-52
2023/02/24 11:51:31;;;;;;;;;;;;;;;;;;5070938;28;1916;-44
2023/02/24 11:54:04;;;;;;;;;;;;;;;;;;5071171;28;1981;-44
2023/02/24 11:56:41;;;;;;;;;;;;;;;;;;5070825;28;1866;-48
2023/02/24 11:59:11;;;;;;;;;;;;;;;;;;5071247;28;1662;-49
2023/02/24 12:01:58;;;;;;;;;;;;;;;;;;5070700;28;2102;-48
2023/02/24 12:04:28;;;;;;;;;;;;;;;;;;5070535;28;1887;-48
2023/02/24 12:07:14;;;;;;;;;;;;;;;;;;5070774;28;1953;-51
2023/02/24 12:09:44;;;;;;;;;;;;;;;;;;5069261;28;1973;-47
2023/02/24 12:12:31;;;;;;;;;;;;;;;;;;5070896;28;1840;-47
2023/02/24 12:15:02;;;;;;;;;;;;;;;;;;5057440;28;1689;-46
2023/02/24 12:17:38;;;;;;;;;;;;;;;;;;5070890;28;2489;-48
2023/02/24 12:20:14;;;;;;;;;;;;;;;;;;5071008;28;1759;-46
2023/02/24 12:22:49;;;;;;;;;;;;;;;;;;5070811;28;1920;-49
2023/02/24 12:25:21;;;;;;;;;;;;;;;;;;5071054;28;2092;-47
2023/02/24 12:28:00;;;;;;;;;;;;;;;;;;5070879;28;2065;-47
2023/02/24 12:30:34;;;;;;;;;;;;;;;;;;5070792;28;1993;-47
2023/02/24 12:33:14;;;;;;;;;;;;;;;;;;5070803;28;1454;-49
2023/02/24 12:35:41;;;;;;;;;;;;;;;;;;5070252;28;1793;-45
2023/02/24 12:38:27;;;;;;;;;;;;;;;;;;5070760;28;1776;-44
2023/02/24 12:41:03;;;;;;;;;;;;;;;;;;5070594;28;1249;-45
2023/02/24 12:43:41;;;;;;;;;;;;;;;;;;5070569;28;2314;-48
2023/02/24 12:46:16;;;;;;;;;;;;;;;;;;5070815;28;1901;-46
2023/02/24 12:48:49;;;;;;;;;;;;;;;;;;5070293;28;1788;-50
2023/02/24 12:51:23;;;;;;;;;;;;;;;;;;5070392;28;1908;-50
2023/02/24 12:53:57;;;;;;;;;;;;;;;;;;5070388;28;1665;-48
2023/02/24 12:56:30;;;;;;;;;;;;;;;;;;5070300;28;1607;-45
2023/02/24 12:59:04;;;;;;;;;;;;;;;;;;5070072;28;2027;-49
2023/02/24 13:01:32;;;;;;;;;;;;;;;;;;5070533;28;1981;-45
2023/02/24 13:04:22;;;;;;;;;;;;;;;;;;5070142;28;1598;-48
2023/02/24 13:06:52;;;;;;;;;;;;;;;;;;5069003;28;1899;-51
2023/02/24 13:09:20;;;;;;;;;;;;;;;;;;5070264;28;1986;-47
2023/02/24 13:11:54;;;;;;;;;;;;;;;;;;5070164;28;1977;-49
2023/02/24 13:14:27;;;;;;;;;;;;;;;;;;5070516;28;1983;-40
2023/02/24 13:17:25;;;;;;;;;;;;;;;;;;5074024;28;1903;-40
2023/02/24 13:19:54;;;;;;;;;;;;;;;;;;5057934;28;1839;-41
2023/02/24 13:22:31;;;;;;;;;;;;;;;;;;5073763;28;2015;-41
2023/02/24 13:25:11;;;;;;;;;;;;;;;;;;5073573;28;1714;-43
2023/02/24 13:27:40;;;;;;;;;;;;;;;;;;5074403;28;1653;-43
2023/02/24 13:30:10;;;;;;;;;;;;;;;;;;5073487;28;1911;-40
2023/02/24 13:32:39;;;;;;;;;;;;;;;;;;5073637;28;1904;-40
2023/02/24 13:35:12;;;;;;;;;;;;;;;;;;5073314;28;1412;-39
2023/02/24 13:37:41;;;;;;;;;;;;;;;;;;5073241;28;2382;-40
2023/02/24 13:40:17;;;;;;;;;;;;;;;;;;5077803;28;1550;-40
2023/02/24 13:42:56;;;;;;;;;;;;;;;;;;5093353;28;1850;-39
2023/02/24 13:45:27;;;;;;;;;;;;;;;;;;5093524;28;1685;-40
2023/02/24 13:48:04;;;;;;;;;;;;;;;;;;5093432;28;2072;-39
2023/02/24 13:50:31;;;;;;;;;;;;;;;;;;5093388;28;2179;-40
2023/02/24 13:53:17;;;;;;;;;;;;;;;;;;5093164;28;1781;-40
2023/02/24 13:55:44;;;;;;;;;;;;;;;;;;5093262;28;1726;-39
2023/02/24 13:58:17;;;;;;;;;;;;;;;;;;5093534;28;1942;-40
2023/02/24 14:01:02;;;;;;;;;;;;;;;;;;5093242;28;1849;-43
2023/02/24 14:03:30;;;;;;;;;;;;;;;;;;5092805;28;1805;-40
2023/02/24 14:05:58;;;;;;;;;;;;;;;;;;5079415;28;1878;-43
2023/02/24 14:08:31;;;;;;;;;;;;;;;;;;5072766;28;2198;-39
2023/02/24 14:10:59;;;;;;;;;;;;;;;;;;5072707;28;1911;-40
2023/02/24 14:13:28;;;;;;;;;;;;;;;;;;5072509;28;1947;-40
2023/02/24 14:15:56;;;;;;;;;;;;;;;;;;5072503;28;1665;-39
2023/02/24 14:18:25;;;;;;;;;;;;;;;;;;5072387;28;1603;-40
2023/02/24 14:20:54;;;;;;;;;;;;;;;;;;5072351;28;1957;-43
2023/02/24 14:23:25;;;;;;;;;;;;;;;;;;5072422;28;2166;-40
2023/02/24 14:26:17;;;;;;;;;;;;;;;;;;5072045;28;1699;-40
2023/02/24 14:28:51;;;;;;;;;;;;;;;;;;5072317;28;1935;-39
2023/02/24 14:31:21;;;;;;;;;;;;;;;;;;5071968;28;1906;-40
2023/02/24 14:33:53;;;;;;;;;;;;;;;;;;5072141;28;1545;-40
2023/02/24 14:36:23;;;;;;;;;;;;;;;;;;5071941;28;1904;-40
2023/02/24 14:39:11;;;;;;;;;;;;;;;;;;5071783;28;2142;-41
2023/02/24 14:41:39;;;;;;;;;;;;;;;;;;5054293;28;1572;-40
2023/02/24 14:44:21;;;;;;;;;;;;;;;;;;5072639;28;1608;-40
2023/02/24 14:46:50;;;;;;;;;;;;;;;;;;5072027;28;2128;-40
2023/02/24 14:49:19;;;;;;;;;;;;;;;;;;5071912;28;1732;-40
2023/02/24 14:51:47;;;;;;;;;;;;;;;;;;5071632;28;1969;-41
2023/02/24 14:54:19;;;;;;;;;;;;;;;;;;5071785;28;1874;-41
2023/02/24 14:56:47;;;;;;;;;;;;;;;;;;5071739;28;1572;-41
2023/02/24 14:59:14;;;;;;;;;;;;;;;;;;5071544;28;1983;-41
2023/02/24 15:01:46;;;;;;;;;;;;;;;;;;5071591;28;1751;-40
2023/02/24 15:04:21;;;;;;;;;;;;;;;;;;5053777;28;2062;-43
2023/02/24 15:06:49;;;;;;;;;;;;;;;;;;5071535;28;1877;-40
2023/02/24 15:09:24;;;;;;;;;;;;;;;;;;5071405;28;1660;-45
2023/02/24 15:11:54;;;;;;;;;;;;;;;;;;5071340;28;1902;-42
2023/02/24 15:14:27;;;;;;;;;;;;;;;;;;5070093;28;2351;-40
2023/02/24 15:16:58;;;;;;;;;;;;;;;;;;5071346;28;1623;-41
2023/02/24 15:19:32;;;;;;;;;;;;;;;;;;5071336;28;1688;-45
2023/02/24 15:22:00;;;;;;;;;;;;;;;;;;5071275;28;1892;-46
2023/02/24 15:24:31;;;;;;;;;;;;;;;;;;5071120;28;1679;-45
2023/02/24 15:27:00;;;;;;;;;;;;;;;;;;5053278;28;1694;-42
2023/02/24 15:29:28;;;;;;;;;;;;;;;;;;5071321;28;1844;-44
2023/02/24 15:31:56;;;;;;;;;;;;;;;;;;5070906;28;2230;-40
2023/02/24 15:34:33;;;;;;;;;;;;;;;;;;5063975;28;1680;-40
2023/02/24 15:37:11;;;;;;;;;;;;;;;;;;5090901;28;2144;-40
2023/02/24 15:39:40;;;;;;;;;;;;;;;;;;5091232;28;1403;-43
2023/02/24 15:42:16;;;;;;;;;;;;;;;;;;5091233;28;1772;-41
2023/02/24 15:44:59;;;;;;;;;;;;;;;;;;5091368;28;1667;-40
2023/02/24 15:47:29;;;;;;;;;;;;;;;;;;5090165;28;1818;-38
2023/02/24 15:49:56;;;;;;;;;;;;;;;;;;5091282;28;2323;-45
2023/02/24 15:52:25;;;;;;;;;;;;;;;;;;5091100;28;1921;-43
2023/02/24 15:54:53;;;;;;;;;;;;;;;;;;5090971;28;1456;-44
2023/02/24 15:57:21;;;;;;;;;;;;;;;;;;5071657;28;2024;-43
2023/02/24 15:59:48;;;;;;;;;;;;;;;;;;5091200;28;1835;-39
2023/02/24 16:02:18;;;;;;;;;;;;;;;;;;5090945;28;1284;-40
2023/02/24 16:04:46;;;;;;;;;;;;;;;;;;5087028;28;1898;-46
2023/02/24 16:07:16;;;;;;;;;;;;;;;;;;5070924;28;1918;-47
2023/02/24 16:09:44;;;;;;;;;;;;;;;;;;5070778;28;2262;-48
2023/02/24 16:12:11;;;;;;;;;;;;;;;;;;5070819;28;2123;-40
2023/02/24 16:14:38;;;;;;;;;;;;;;;;;;5070663;28;1739;-40
2023/02/24 16:17:08;;;;;;;;;;;;;;;;;;5070695;28;1757;-39
2023/02/24 16:19:36;;;;;;;;;;;;;;;;;;5070603;28;1777;-39
2023/02/24 16:22:05;;;;;;;;;;;;;;;;;;5070748;28;2254;-40
2023/02/24 16:24:32;;;;;;;;;;;;;;;;;;5052798;28;1932;-40
2023/02/24 16:27:00;;;;;;;;;;;;;;;;;;5070552;28;1962;-41
2023/02/24 16:29:27;;;;;;;;;;;;;;;;;;5070562;28;1868;-39
2023/02/24 16:31:54;;;;;;;;;;;;;;;;;;5070567;28;2211;-39
2023/02/24 16:34:21;;;;;;;;;;;;;;;;;;5070369;28;1696;-41
2023/02/24 16:36:49;;;;;;;;;;;;;;;;;;5070317;28;2023;-39
2023/02/24 16:39:16;;;;;;;;;;;;;;;;;;5070409;28;1831;-40
2023/02/24 16:41:43;;;;;;;;;;;;;;;;;;5070149;28;1796;-40
2023/02/24 16:44:11;;;;;;;;;;;;;;;;;;5070550;28;1879;-40
2023/02/24 16:46:40;;;;;;;;;;;;;;;;;;5070554;28;1631;-39
2023/02/24 16:49:08;;;;;;;;;;;;;;;;;;5071626;28;2008;-40
2023/02/24 16:51:37;;;;;;;;;;;;;;;;;;5074061;28;1961;-39
2023/02/24 16:54:05;;;;;;;;;;;;;;;;;;5074040;28;1849;-42
2023/02/24 16:56:32;;;;;;;;;;;;;;;;;;5074427;28;1772;-43
2023/02/24 16:58:59;;;;;;;;;;;;;;;;;;5072477;28;1414;-41
2023/02/24 17:01:26;;;;;;;;;;;;;;;;;;5073487;28;1823;-44
2023/02/24 17:03:53;;;;;;;;;;;;;;;;;;5073840;28;2017;-39
2023/02/24 17:06:21;;;;;;;;;;;;;;;;;;5072762;28;1870;-41
2023/02/24 17:08:49;;;;;;;;;;;;;;;;;;5093987;28;2006;-44
2023/02/24 17:11:18;;;;;;;;;;;;;;;;;;5093996;28;1915;-41
2023/02/24 17:13:45;;;;;;;;;;;;;;;;;;5094047;28;1931;-41
2023/02/24 17:16:12;;;;;;;;;;;;;;;;;;5094032;28;1569;-43
2023/02/24 17:18:39;;;;;;;;;;;;;;;;;;5093807;28;2150;-40
2023/02/24 17:21:06;;;;;;;;;;;;;;;;;;5093097;28;1898;-40
2023/02/24 17:23:33;;;;;;;;;;;;;;;;;;5093536;28;2104;-40
2023/02/24 17:26:01;;;;;;;;;;;;;;;;;;5077092;28;2179;-40
2023/02/24 17:28:28;;;;;;;;;;;;;;;;;;5073601;28;1902;-39
2023/02/24 17:30:56;;;;;;;;;;;;;;;;;;5073612;28;1909;-41
2023/02/24 17:33:23;;;;;;;;;;;;;;;;;;5073563;28;1839;-41
2023/02/24 17:35:50;;;;;;;;;;;;;;;;;;5073032;28;2120;-40
2023/02/24 17:38:19;;;;;;;;;;;;;;;;;;5073394;28;2010;-40
2023/02/24 17:40:46;;;;;;;;;;;;;;;;;;5073099;28;1535;-41
2023/02/24 17:43:13;;;;;;;;;;;;;;;;;;5073096;28;1843;-40
2023/02/24 17:45:41;;;;;;;;;;;;;;;;;;5073483;28;2080;-40
2023/02/24 17:48:09;;;;;;;;;;;;;;;;;;5078948;28;1767;-43
2023/02/24 17:50:37;;;;;;;;;;;;;;;;;;5093286;28;1893;-42
2023/02/24 17:53:04;;;;;;;;;;;;;;;;;;5092562;28;2065;-40
2023/02/24 17:55:31;;;;;;;;;;;;;;;;;;5093145;28;1820;-43
2023/02/24 17:57:59;;;;;;;;;;;;;;;;;;5093042;28;1457;-40
2023/02/24 18:00:27;;;;;;;;;;;;;;;;;;5092183;28;2168;-40
2023/02/24 18:02:54;;;;;;;;;;;;;;;;;;5093034;28;1893;-40
2023/02/24 18:05:21;;;;;;;;;;;;;;;;;;5084079;28;1834;-45
2023/02/24 18:07:49;;;;;;;;;;;;;;;;;;5072854;28;1979;-40